Terminal Aerodrome Forecast
Issued by NWS

Home | Current Version | Previous Version | Text Only | Print | Product List | Glossary On
Versions: 1 2 3 4 5 6 7 8 9 10 11 12 13 14
000
FTUS43 KFGF 271731 AAA
TAFDVL
TAF AMD
KDVL 271731Z 2718/2818 33012KT P6SM SKC
     FM280100 03006KT P6SM FEW250
     FM280800 00000KT P6SM FEW250
     FM281400 00000KT P6SM FEW250=

USA.gov is the U.S. government's official web portal to all federal, state and local government web resources and services.